Time;durP1;ratioP1;P1;durP2;ratioP2;P2;SDS_P1;SDS_P2;PMS_P1;PMS_P2;Temp;Humidity;BMP_temperature;BMP_pressure;BME280_temperature;BME280_humidity;BME280_pressure;Samples;Min_cycle;Max_cycle;Signal;HPM_P1;HPM_P2
2022/07/15 00:01:34;;;;;;;4.70;4.30;;;23.20;99.90;;;;;;5091482;28;20283;-53
2022/07/15 00:04:04;;;;;;;4.53;4.13;;;23.10;99.90;;;;;;5089629;28;20227;-54
2022/07/15 00:06:31;;;;;;;7.37;4.33;;;23.00;99.90;;;;;;5091981;28;20217;-53
2022/07/15 00:08:58;;;;;;;5.67;4.30;;;23.10;99.90;;;;;;5092078;28;20196;-54
2022/07/15 00:11:25;;;;;;;4.50;4.03;;;23.00;99.90;;;;;;5091157;28;20927;-54
2022/07/15 00:13:52;;;;;;;4.57;4.03;;;23.00;99.90;;;;;;5091822;28;20193;-53
2022/07/15 00:16:19;;;;;;;3.90;3.70;;;22.90;99.90;;;;;;5090176;28;20216;-54
2022/07/15 00:18:46;;;;;;;5.10;3.60;;;22.90;99.90;;;;;;5091982;28;20269;-54
2022/07/15 00:21:15;;;;;;;6.50;4.73;;;22.80;99.80;;;;;;5090534;28;20200;-54
2022/07/15 00:23:42;;;;;;;4.13;3.83;;;22.80;99.40;;;;;;5091518;28;20640;-53
2022/07/15 00:26:09;;;;;;;3.77;3.67;;;22.70;99.40;;;;;;5091644;28;20282;-54
2022/07/15 00:28:36;;;;;;;3.90;3.60;;;22.70;99.40;;;;;;5091865;28;20204;-54
2022/07/15 00:31:03;;;;;;;4.30;3.87;;;22.70;99.30;;;;;;5090028;28;20673;-53
2022/07/15 00:33:30;;;;;;;4.70;4.10;;;22.60;99.10;;;;;;5091668;28;20204;-54
2022/07/15 00:35:57;;;;;;;5.23;3.07;;;22.60;99.30;;;;;;5091596;28;20272;-53
2022/07/15 00:38:26;;;;;;;6.40;4.30;;;22.60;99.40;;;;;;5091022;28;20245;-54
2022/07/15 00:40:52;;;;;;;3.73;3.53;;;22.60;99.00;;;;;;5091339;28;20658;-53
2022/07/15 00:43:20;;;;;;;4.90;4.50;;;22.60;99.10;;;;;;5091113;28;20204;-53
2022/07/15 00:45:47;;;;;;;5.37;3.90;;;22.50;99.20;;;;;;5090018;28;20285;-53
2022/07/15 00:48:14;;;;;;;10.93;4.10;;;22.50;99.70;;;;;;5081494;28;20303;-54
2022/07/15 00:50:41;;;;;;;3.37;3.20;;;22.50;99.40;;;;;;5091441;28;20258;-54
2022/07/15 00:53:18;;;;;;;3.50;3.40;;;22.50;99.30;;;;;;5090764;28;20224;-53
2022/07/15 00:55:48;;;;;;;3.73;3.53;;;22.50;99.10;;;;;;5091238;28;20539;-53
2022/07/15 00:58:17;;;;;;;3.97;3.63;;;22.40;99.40;;;;;;5091457;28;20204;-54
2022/07/15 01:00:45;;;;;;;3.90;3.60;;;22.40;99.40;;;;;;5091312;28;20268;-54
2022/07/15 01:03:14;;;;;;;3.77;3.43;;;22.30;99.60;;;;;;5085567;28;20716;-54
2022/07/15 01:05:42;;;;;;;3.53;3.33;;;22.30;99.50;;;;;;5087689;28;20220;-54
2022/07/15 01:08:10;;;;;;;3.43;3.13;;;22.20;99.50;;;;;;5090933;28;20725;-53
2022/07/15 01:10:37;;;;;;;4.83;3.37;;;22.20;99.60;;;;;;5091472;28;20279;-53
2022/07/15 01:13:05;;;;;;;3.93;3.63;;;22.10;99.40;;;;;;5089494;28;20255;-53
2022/07/15 01:15:33;;;;;;;6.77;3.20;;;22.10;99.40;;;;;;5091198;28;20192;-54
2022/07/15 01:18:01;;;;;;;3.53;3.00;;;22.10;99.20;;;;;;5089298;28;20285;-54
2022/07/15 01:20:28;;;;;;;4.80;2.60;;;22.10;99.70;;;;;;5089907;28;20576;-53
2022/07/15 01:22:58;;;;;;;3.33;3.23;;;22.10;99.30;;;;;;5089206;28;20697;-54
2022/07/15 01:25:26;;;;;;;3.50;3.20;;;22.10;99.50;;;;;;5076809;28;20220;-53
2022/07/15 01:27:53;;;;;;;3.70;3.43;;;22.00;99.70;;;;;;5090609;28;20293;-53
2022/07/15 01:30:20;;;;;;;3.77;3.03;;;22.10;99.50;;;;;;5082847;28;20669;-54
2022/07/15 01:32:47;;;;;;;5.13;3.60;;;22.00;99.70;;;;;;5085248;28;20196;-54
2022/07/15 01:35:13;;;;;;;3.73;3.57;;;21.90;99.50;;;;;;5088463;28;20192;-53
2022/07/15 01:37:42;;;;;;;3.27;3.07;;;21.90;99.70;;;;;;5090568;28;20251;-53
2022/07/15 01:40:11;;;;;;;3.60;3.40;;;21.90;99.90;;;;;;5090826;28;20230;-53
2022/07/15 01:42:38;;;;;;;4.67;3.30;;;21.80;99.80;;;;;;5089283;28;20203;-53
2022/07/15 01:45:06;;;;;;;3.17;3.07;;;21.80;99.90;;;;;;5090367;28;20212;-54
2022/07/15 01:47:33;;;;;;;5.57;3.40;;;21.80;99.90;;;;;;5090703;28;20292;-53
2022/07/15 01:49:59;;;;;;;3.33;3.07;;;21.70;99.90;;;;;;5090472;28;20196;-53
2022/07/15 01:52:26;;;;;;;4.70;3.20;;;21.60;99.90;;;;;;5088445;28;20266;-53
2022/07/15 01:54:53;;;;;;;3.23;3.13;;;21.70;99.90;;;;;;5088677;28;20341;-53
2022/07/15 01:57:21;;;;;;;3.73;3.53;;;21.60;99.90;;;;;;5089046;28;20228;-53
2022/07/15 01:59:49;;;;;;;3.73;3.00;;;21.60;99.90;;;;;;5091255;28;20242;-54
2022/07/15 02:02:16;;;;;;;5.23;3.13;;;21.60;99.90;;;;;;5091845;28;20219;-53
2022/07/15 02:04:43;;;;;;;3.50;3.37;;;21.60;99.90;;;;;;5091839;28;20217;-53
2022/07/15 02:07:10;;;;;;;3.73;3.07;;;21.60;99.90;;;;;;5086074;28;20219;-53
2022/07/15 02:09:37;;;;;;;4.70;3.23;;;21.60;99.90;;;;;;5091348;28;20669;-54
2022/07/15 02:12:06;;;;;;;3.77;3.47;;;21.60;99.90;;;;;;5093717;28;20196;-53
2022/07/15 02:14:35;;;;;;;2.90;2.80;;;21.50;99.90;;;;;;5094359;28;20228;-54
2022/07/15 02:17:02;;;;;;;3.17;3.07;;;21.50;99.80;;;;;;5093174;28;20730;-54
2022/07/15 02:19:29;;;;;;;3.83;3.63;;;21.50;99.80;;;;;;5094533;28;20337;-53
2022/07/15 02:21:56;;;;;;;3.33;3.13;;;21.50;99.90;;;;;;5093703;28;20204;-53
2022/07/15 02:24:23;;;;;;;3.50;3.20;;;21.50;99.90;;;;;;5092439;28;20266;-54
2022/07/15 02:26:50;;;;;;;3.77;3.40;;;21.50;99.90;;;;;;5093280;28;20228;-53
2022/07/15 02:29:18;;;;;;;4.53;3.10;;;21.50;99.90;;;;;;5093796;28;20632;-53
2022/07/15 02:31:46;;;;;;;7.70;3.27;;;21.50;99.90;;;;;;5092190;28;20204;-53
2022/07/15 02:34:13;;;;;;;3.10;3.00;;;21.40;99.80;;;;;;5085670;28;20205;-53
2022/07/15 02:36:40;;;;;;;3.27;3.03;;;21.30;99.70;;;;;;5093893;28;20303;-54
2022/07/15 02:39:07;;;;;;;2.83;2.63;;;21.30;99.90;;;;;;5093845;28;20201;-54
2022/07/15 02:41:34;;;;;;;2.90;2.70;;;21.20;99.90;;;;;;5091449;28;20205;-53
2022/07/15 02:44:02;;;;;;;3.87;3.20;;;21.30;99.90;;;;;;5093642;28;20208;-54
2022/07/15 02:46:29;;;;;;;5.63;3.17;;;21.30;99.90;;;;;;5093729;28;20307;-54
2022/07/15 02:48:57;;;;;;;3.57;3.33;;;21.30;99.90;;;;;;5084442;28;20271;-53
2022/07/15 02:51:24;;;;;;;3.30;2.97;;;21.30;99.90;;;;;;5092861;28;20666;-54
2022/07/15 02:53:51;;;;;;;3.33;3.00;;;21.30;99.90;;;;;;5093506;28;20624;-53
2022/07/15 02:56:18;;;;;;;2.90;2.70;;;21.20;99.90;;;;;;5093159;28;20220;-54
2022/07/15 02:58:45;;;;;;;2.73;2.57;;;21.20;99.90;;;;;;5091774;28;20212;-54
2022/07/15 03:01:12;;;;;;;3.97;2.80;;;21.20;99.90;;;;;;5090812;28;20204;-53
2022/07/15 03:03:39;;;;;;;3.00;2.90;;;21.20;99.90;;;;;;5085532;28;20212;-54
2022/07/15 03:06:08;;;;;;;3.67;3.10;;;21.20;99.90;;;;;;5091838;28;20216;-53
2022/07/15 03:08:35;;;;;;;2.97;2.77;;;21.20;99.90;;;;;;5092899;28;20278;-53
2022/07/15 03:11:02;;;;;;;7.63;2.90;;;21.30;99.90;;;;;;5092745;28;20204;-53
2022/07/15 03:13:29;;;;;;;3.40;3.30;;;21.20;99.90;;;;;;5093240;28;20673;-53
2022/07/15 03:15:56;;;;;;;3.37;3.10;;;21.20;99.90;;;;;;5092643;28;20224;-53
2022/07/15 03:18:24;;;;;;;3.67;3.47;;;21.10;99.90;;;;;;5093447;28;20215;-54
2022/07/15 03:20:51;;;;;;;4.33;3.50;;;21.10;99.90;;;;;;5091247;28;20207;-54
2022/07/15 03:23:19;;;;;;;3.70;3.40;;;21.00;99.90;;;;;;5084191;28;20196;-53
2022/07/15 03:25:48;;;;;;;3.07;2.87;;;21.10;99.90;;;;;;5093070;28;20658;-54
2022/07/15 03:28:15;;;;;;;3.53;3.23;;;21.00;99.90;;;;;;5093484;28;20287;-53
2022/07/15 03:30:42;;;;;;;2.87;2.87;;;20.90;99.90;;;;;;5091413;28;20209;-53
2022/07/15 03:33:09;;;;;;;3.30;3.07;;;20.90;99.90;;;;;;5087075;28;20192;-53
2022/07/15 03:35:36;;;;;;;3.70;3.40;;;21.00;99.90;;;;;;5082937;28;20202;-53
2022/07/15 03:38:03;;;;;;;3.40;2.50;;;21.00;99.90;;;;;;5089902;28;20274;-53
2022/07/15 03:40:31;;;;;;;4.17;3.97;;;21.00;99.90;;;;;;5088821;28;20285;-53
2022/07/15 03:42:59;;;;;;;3.83;3.53;;;20.90;99.90;;;;;;5089618;28;20200;-54
2022/07/15 03:45:26;;;;;;;3.60;3.50;;;20.80;99.90;;;;;;5083781;28;20266;-53
2022/07/15 03:47:53;;;;;;;7.80;4.00;;;20.80;99.90;;;;;;5084423;28;20247;-53
2022/07/15 03:50:20;;;;;;;4.30;3.53;;;20.80;99.90;;;;;;5090317;28;20196;-53
2022/07/15 03:52:47;;;;;;;3.50;3.37;;;20.80;99.90;;;;;;5091184;28;20666;-53
2022/07/15 03:55:14;;;;;;;3.00;2.80;;;20.80;99.90;;;;;;5091041;28;20192;-54
2022/07/15 03:57:43;;;;;;;3.63;3.30;;;20.80;99.90;;;;;;5092122;28;20232;-54
2022/07/15 04:00:10;;;;;;;3.87;2.93;;;20.80;99.90;;;;;;5092444;28;20200;-53
2022/07/15 04:02:38;;;;;;;3.97;3.63;;;20.70;99.90;;;;;;5091954;28;20612;-53
2022/07/15 04:05:06;;;;;;;3.50;3.27;;;20.70;99.90;;;;;;5090387;28;20691;-54
2022/07/15 04:07:33;;;;;;;3.27;2.97;;;20.70;99.90;;;;;;5092242;28;20224;-53
2022/07/15 04:10:00;;;;;;;2.97;2.83;;;20.70;99.90;;;;;;5090488;28;20751;-54
2022/07/15 04:12:27;;;;;;;6.50;3.27;;;20.70;99.90;;;;;;5091640;28;20239;-54
2022/07/15 04:14:55;;;;;;;3.33;3.03;;;20.70;99.90;;;;;;5091058;28;20200;-54
2022/07/15 04:17:22;;;;;;;3.33;2.70;;;20.60;99.90;;;;;;5092170;28;20228;-53
2022/07/15 04:19:49;;;;;;;3.43;3.13;;;20.70;99.90;;;;;;5092006;28;20346;-53
2022/07/15 04:22:16;;;;;;;4.57;3.40;;;20.70;99.90;;;;;;5089718;28;20587;-54
2022/07/15 04:24:43;;;;;;;3.07;2.97;;;20.70;99.90;;;;;;5091581;28;20682;-54
2022/07/15 04:27:10;;;;;;;4.00;3.10;;;20.80;99.90;;;;;;5087085;28;20217;-53
2022/07/15 04:29:38;;;;;;;3.30;3.00;;;20.70;99.90;;;;;;5087594;28;20196;-53
2022/07/15 04:32:06;;;;;;;3.07;2.53;;;20.70;99.90;;;;;;5090310;28;20658;-53
2022/07/15 04:34:33;;;;;;;4.93;3.33;;;20.70;99.90;;;;;;5091644;28;20200;-53
2022/07/15 04:37:00;;;;;;;3.60;3.30;;;20.70;99.90;;;;;;5091835;28;20247;-53
2022/07/15 04:39:27;;;;;;;3.70;2.80;;;20.70;99.90;;;;;;5089618;28;20200;-53
2022/07/15 04:41:54;;;;;;;3.23;2.83;;;20.80;99.90;;;;;;5089227;28;20682;-53
2022/07/15 04:44:21;;;;;;;3.33;3.13;;;20.80;99.90;;;;;;5082888;28;20204;-53
2022/07/15 04:46:48;;;;;;;3.50;2.83;;;20.90;99.90;;;;;;5091482;28;20220;-53
2022/07/15 04:52:01;;;;;;;3.70;3.33;;;21.00;99.90;;;;;;5090979;28;20769;-54
2022/07/15 04:54:28;;;;;;;4.37;3.33;;;21.20;99.90;;;;;;5090886;28;20196;-54
2022/07/15 04:56:55;;;;;;;3.57;3.30;;;21.10;99.90;;;;;;5090349;28;20232;-54
2022/07/15 04:59:22;;;;;;;3.07;2.87;;;21.10;99.90;;;;;;5091311;28;20562;-53
2022/07/15 05:01:49;;;;;;;3.67;3.37;;;21.20;99.90;;;;;;5090880;28;20336;-54
2022/07/15 05:04:17;;;;;;;2.87;2.77;;;21.20;99.90;;;;;;5091513;28;20201;-53
2022/07/15 05:06:44;;;;;;;2.57;2.37;;;21.20;99.80;;;;;;5080805;28;20237;-53
2022/07/15 05:09:11;;;;;;;3.13;2.87;;;21.20;99.90;;;;;;5075010;28;20201;-54
2022/07/15 05:11:38;;;;;;;3.53;3.23;;;21.20;99.70;;;;;;5081793;28;20193;-54
2022/07/15 05:14:05;;;;;;;3.67;3.37;;;21.20;99.90;;;;;;5085676;28;20743;-54
2022/07/15 05:16:32;;;;;;;3.27;3.00;;;21.10;99.90;;;;;;5089392;28;20264;-54
2022/07/15 05:18:59;;;;;;;2.67;2.60;;;21.20;99.70;;;;;;5089212;28;20192;-54
2022/07/15 05:21:28;;;;;;;6.37;3.67;;;21.50;99.90;;;;;;5088645;28;20204;-53
2022/07/15 05:23:55;;;;;;;3.40;3.03;;;21.60;99.90;;;;;;5087617;28;20212;-53
2022/07/15 05:26:23;;;;;;;6.80;3.43;;;21.50;99.90;;;;;;5083357;28;20224;-54
2022/07/15 05:28:50;;;;;;;4.77;3.23;;;21.50;99.90;;;;;;5080192;28;20259;-54
2022/07/15 05:31:17;;;;;;;3.93;2.80;;;21.50;99.90;;;;;;5072084;28;20194;-54
2022/07/15 05:33:44;;;;;;;5.80;2.70;;;21.50;99.90;;;;;;5079003;28;20192;-53
2022/07/15 05:36:15;;;;;;;2.87;2.67;;;21.60;99.90;;;;;;5084897;28;20401;-53
2022/07/15 05:38:43;;;;;;;4.37;3.30;;;21.70;99.80;;;;;;5084287;28;20205;-54
2022/07/15 05:41:10;;;;;;;5.43;3.17;;;21.70;99.90;;;;;;5082921;28;20193;-53
2022/07/15 05:43:37;;;;;;;3.10;2.90;;;21.90;99.90;;;;;;5088405;28;20205;-53
2022/07/15 05:46:06;;;;;;;7.63;3.30;;;22.00;99.90;;;;;;5092832;28;20709;-54
2022/07/15 05:48:33;;;;;;;3.07;2.87;;;22.10;99.90;;;;;;5086498;28;20246;-54
2022/07/15 05:51:00;;;;;;;3.03;2.87;;;22.20;99.90;;;;;;5085345;28;20668;-53
2022/07/15 05:53:27;;;;;;;3.20;2.93;;;22.20;98.60;;;;;;5084613;28;20205;-54
2022/07/15 05:55:55;;;;;;;2.97;2.80;;;22.30;99.90;;;;;;5081563;28;20875;-54
2022/07/15 05:58:22;;;;;;;3.10;2.90;;;22.30;99.90;;;;;;5081694;28;20292;-53
2022/07/15 06:00:50;;;;;;;3.83;3.33;;;22.30;99.30;;;;;;5089883;28;20189;-54
2022/07/15 06:03:17;;;;;;;3.13;3.03;;;22.30;99.90;;;;;;5085871;28;20204;-54
2022/07/15 06:05:45;;;;;;;3.73;3.30;;;22.60;99.90;;;;;;5083172;28;20208;-54
2022/07/15 06:08:12;;;;;;;3.00;2.90;;;22.80;98.90;;;;;;5088516;28;20197;-54
2022/07/15 06:10:39;;;;;;;3.57;3.37;;;23.10;99.90;;;;;;5073559;28;20201;-54
2022/07/15 06:13:07;;;;;;;2.97;2.80;;;23.10;99.70;;;;;;5073094;28;20246;-54
2022/07/15 06:15:35;;;;;;;3.40;3.17;;;23.20;98.90;;;;;;5081100;28;20190;-53
2022/07/15 06:18:01;;;;;;;4.70;2.80;;;23.10;99.90;;;;;;5092829;28;20712;-54
2022/07/15 06:20:29;;;;;;;3.60;3.10;;;23.10;99.90;;;;;;5086107;28;20232;-54
2022/07/15 06:22:57;;;;;;;3.13;2.80;;;23.10;98.90;;;;;;5078937;28;20349;-53
2022/07/15 06:25:24;;;;;;;4.60;3.33;;;23.90;99.90;;;;;;5092492;28;20205;-53
2022/07/15 06:27:51;;;;;;;3.70;2.90;;;24.00;98.60;;;;;;5091150;28;20252;-54
2022/07/15 06:30:19;;;;;;;4.70;2.73;;;24.20;98.60;;;;;;5092076;28;20200;-54
2022/07/15 06:32:46;;;;;;;2.77;2.60;;;23.90;98.40;;;;;;5088154;28;20207;-54
2022/07/15 06:35:13;;;;;;;2.57;2.27;;;24.70;98.40;;;;;;5089384;28;20257;-53
2022/07/15 06:37:40;;;;;;;3.10;2.73;;;25.00;96.60;;;;;;5093833;28;20308;-54
2022/07/15 06:40:08;;;;;;;2.90;2.67;;;25.10;95.80;;;;;;5093051;28;20249;-53
2022/07/15 06:42:37;;;;;;;3.70;2.67;;;25.50;96.10;;;;;;5092426;28;20201;-53
2022/07/15 06:45:05;;;;;;;5.00;2.83;;;25.60;95.80;;;;;;5093610;28;21447;-53
2022/07/15 06:47:33;;;;;;;2.90;2.70;;;25.30;96.30;;;;;;5090471;28;20646;-54
2022/07/15 06:50:01;;;;;;;4.23;2.70;;;25.70;96.80;;;;;;5092302;28;20659;-54
2022/07/15 06:52:28;;;;;;;13.17;3.40;;;25.60;96.10;;;;;;5090580;28;20662;-54
2022/07/15 06:54:55;;;;;;;4.17;2.80;;;25.40;95.10;;;;;;5091695;28;20633;-53
2022/07/15 06:57:22;;;;;;;2.70;2.50;;;26.00;95.10;;;;;;5093569;28;20221;-54
2022/07/15 06:59:49;;;;;;;3.93;2.50;;;26.30;95.00;;;;;;5093774;28;20203;-54
2022/07/15 07:02:17;;;;;;;2.87;2.63;;;26.30;95.30;;;;;;5092940;28;20208;-53
2022/07/15 07:04:45;;;;;;;2.93;2.80;;;26.20;95.60;;;;;;5090180;28;20612;-54
2022/07/15 07:07:13;;;;;;;2.77;2.40;;;25.60;95.90;;;;;;5085351;28;20269;-54
2022/07/15 07:09:40;;;;;;;4.93;2.90;;;25.30;96.20;;;;;;5093385;28;20222;-53
2022/07/15 07:12:08;;;;;;;2.47;2.33;;;25.30;96.00;;;;;;5091290;28;20250;-54
2022/07/15 07:14:35;;;;;;;4.13;3.08;;;26.00;96.30;;;;;;5085466;28;20456;-54
2022/07/15 07:17:02;;;;;;;3.30;2.97;;;26.70;96.40;;;;;;5076101;28;20599;-53
2022/07/15 07:19:29;;;;;;;4.90;2.77;;;27.20;95.10;;;;;;5078049;28;20200;-53
2022/07/15 07:21:57;;;;;;;2.83;2.63;;;27.70;95.90;;;;;;5080565;28;20200;-53
2022/07/15 07:24:24;;;;;;;3.70;3.35;;;28.30;94.50;;;;;;5091513;28;20317;-54
2022/07/15 07:26:51;;;;;;;3.73;3.20;;;28.20;93.00;;;;;;5089481;28;20257;-54
2022/07/15 07:29:22;;;;;;;3.17;2.93;;;27.50;94.00;;;;;;5091843;28;20287;-54
2022/07/15 07:31:49;;;;;;;3.97;3.37;;;26.70;94.60;;;;;;5089209;28;20212;-54
2022/07/15 07:34:17;;;;;;;3.23;3.07;;;25.80;95.00;;;;;;5090907;28;20696;-54
2022/07/15 07:36:44;;;;;;;3.17;2.97;;;26.20;95.90;;;;;;5090657;28;20220;-54
2022/07/15 07:39:14;;;;;;;3.27;3.13;;;26.90;96.30;;;;;;5092516;28;20294;-54
2022/07/15 07:41:41;;;;;;;2.80;2.60;;;27.60;93.70;;;;;;5090262;28;20672;-54
2022/07/15 07:44:08;;;;;;;4.03;2.80;;;28.10;92.90;;;;;;5092093;28;20280;-54
2022/07/15 07:46:35;;;;;;;4.17;3.40;;;28.00;93.70;;;;;;5091484;28;20224;-54
2022/07/15 07:49:02;;;;;;;5.03;3.37;;;27.60;94.10;;;;;;5092256;28;20236;-54
2022/07/15 07:51:29;;;;;;;2.80;2.70;;;27.90;93.90;;;;;;5083712;28;20629;-54
2022/07/15 07:53:56;;;;;;;3.87;2.90;;;28.20;93.70;;;;;;5081555;28;20198;-54
2022/07/15 07:56:25;;;;;;;3.97;3.67;;;28.60;93.70;;;;;;5085789;28;20319;-54
2022/07/15 07:58:55;;;;;;;3.70;3.40;;;28.80;92.30;;;;;;5091601;28;20200;-54
2022/07/15 08:01:22;;;;;;;7.85;3.50;;;28.60;91.90;;;;;;5090949;28;20633;-54
2022/07/15 08:03:50;;;;;;;3.30;3.10;;;27.90;92.80;;;;;;5091689;28;20197;-54
2022/07/15 08:06:17;;;;;;;6.07;3.50;;;27.20;93.30;;;;;;5090255;28;20224;-54
2022/07/15 08:08:44;;;;;;;3.73;3.47;;;26.60;93.50;;;;;;5089842;28;20245;-54
2022/07/15 08:11:12;;;;;;;3.63;3.33;;;27.30;94.50;;;;;;5090719;28;20196;-54
2022/07/15 08:13:41;;;;;;;2.87;2.67;;;27.60;94.20;;;;;;5092056;28;20694;-55
2022/07/15 08:16:08;;;;;;;4.18;3.80;;;27.80;93.50;;;;;;5090041;28;20219;-54
2022/07/15 08:18:35;;;;;;;4.15;3.75;;;28.20;93.00;;;;;;5092149;28;20207;-54
2022/07/15 08:21:03;;;;;;;4.20;3.85;;;29.10;92.60;;;;;;5085368;28;20197;-54
2022/07/15 08:23:32;;;;;;;3.63;2.95;;;29.00;90.90;;;;;;5084193;28;20224;-54
2022/07/15 08:26:00;;;;;;;3.53;3.33;;;28.90;92.10;;;;;;5089161;28;20254;-54
2022/07/15 08:28:27;;;;;;;3.35;3.10;;;29.10;91.80;;;;;;5092010;28;20203;-54
2022/07/15 08:30:55;;;;;;;3.60;3.03;;;29.30;92.00;;;;;;5091834;28;20205;-54
2022/07/15 08:33:22;;;;;;;3.63;3.08;;;29.40;91.50;;;;;;5088440;28;20211;-54
2022/07/15 08:35:50;;;;;;;3.50;3.20;;;29.80;90.80;;;;;;5089097;28;20253;-54
2022/07/15 08:38:17;;;;;;;3.40;3.15;;;29.80;91.40;;;;;;5081351;28;20207;-54
2022/07/15 08:40:44;;;;;;;3.40;3.20;;;29.80;90.70;;;;;;5085454;28;20277;-54
2022/07/15 08:43:12;;;;;;;2.60;2.53;;;29.60;92.20;;;;;;5083459;28;20287;-54
2022/07/15 08:45:42;;;;;;;2.95;2.85;;;30.10;90.70;;;;;;5086893;28;20207;-55
2022/07/15 08:48:11;;;;;;;3.70;3.20;;;30.70;91.10;;;;;;5089445;28;20221;-54
2022/07/15 08:50:46;;;;;;;3.47;3.33;;;31.40;91.20;;;;;;5088556;28;20200;-54
2022/07/15 08:53:13;;;;;;;3.70;3.33;;;31.60;87.40;;;;;;5085964;28;20704;-54
2022/07/15 08:55:41;;;;;;;4.43;3.08;;;31.50;86.80;;;;;;5084501;28;20261;-55
2022/07/15 08:58:09;;;;;;;5.78;2.83;;;31.80;87.10;;;;;;5090334;28;20228;-54
2022/07/15 09:00:36;;;;;;;3.72;3.45;;;31.80;89.20;;;;;;5086096;28;20204;-54
2022/07/15 09:03:05;;;;;;;5.18;3.75;;;30.90;89.10;;;;;;5090532;28;20200;-54
2022/07/15 09:05:34;;;;;;;5.15;3.72;;;30.50;89.60;;;;;;5084093;28;20229;-54
2022/07/15 09:08:04;;;;;;;3.90;3.70;;;29.70;88.60;;;;;;5089198;28;20277;-54
2022/07/15 09:10:49;;;;;;;3.75;3.38;;;29.30;91.30;;;;;;5091465;28;20277;-54
2022/07/15 09:13:25;;;;;;;4.07;3.08;;;29.20;91.10;;;;;;5090572;28;20747;-55
2022/07/15 09:15:55;;;;;;;5.18;3.30;;;29.70;91.40;;;;;;5089613;28;20253;-54
2022/07/15 09:18:23;;;;;;;3.63;3.40;;;29.10;89.70;;;;;;5091112;28;20235;-54
2022/07/15 09:20:52;;;;;;;3.88;3.58;;;29.20;91.20;;;;;;5091429;28;20287;-55
2022/07/15 09:23:23;;;;;;;4.10;3.55;;;30.20;91.30;;;;;;5090712;28;20666;-54
2022/07/15 09:25:51;;;;;;;3.03;2.83;;;30.30;88.40;;;;;;5091507;28;20731;-54
2022/07/15 09:28:18;;;;;;;3.78;3.47;;;30.40;90.40;;;;;;5091363;28;20252;-54
2022/07/15 09:33:36;;;;;;;3.10;3.00;;;30.10;88.50;;;;;;5091264;28;20199;-54
2022/07/15 09:36:10;;;;;;;4.07;3.55;;;30.50;89.30;;;;;;5091052;28;20261;-54
2022/07/15 09:38:43;;;;;;;4.75;3.63;;;30.10;89.10;;;;;;5091366;28;20196;-54
2022/07/15 09:41:21;;;;;;;3.03;2.92;;;30.40;89.70;;;;;;5090800;28;20208;-54
2022/07/15 09:43:51;;;;;;;3.35;3.13;;;30.50;86.90;;;;;;5091192;28;20287;-54
2022/07/15 09:46:20;;;;;;;4.72;3.60;;;30.50;88.00;;;;;;5089145;28;20724;-54
2022/07/15 09:48:48;;;;;;;17.73;4.57;;;30.70;87.30;;;;;;5090927;28;20617;-55
2022/07/15 09:51:17;;;;;;;4.57;4.18;;;30.80;90.40;;;;;;5090503;28;20259;-54
2022/07/15 09:53:45;;;;;;;4.63;4.32;;;30.80;88.90;;;;;;5091069;28;20249;-54
2022/07/15 09:56:14;;;;;;;3.75;3.65;;;30.20;90.10;;;;;;5090732;28;20655;-54
2022/07/15 09:58:43;;;;;;;4.57;4.20;;;29.90;90.00;;;;;;5091083;28;20250;-54
2022/07/15 10:01:12;;;;;;;4.00;3.80;;;29.60;88.70;;;;;;5089194;28;20257;-54
2022/07/15 10:03:40;;;;;;;3.33;3.22;;;30.00;88.20;;;;;;5090662;28;20261;-54
2022/07/15 10:06:08;;;;;;;4.43;4.13;;;30.10;91.20;;;;;;5090866;28;20224;-54
2022/07/15 10:08:37;;;;;;;3.97;3.60;;;30.20;89.70;;;;;;5090855;28;20220;-54
2022/07/15 10:11:11;;;;;;;3.80;3.50;;;30.50;90.30;;;;;;5090525;28;20211;-53
2022/07/15 10:14:13;;;;;;;6.45;4.50;;;31.30;84.20;;;;;;5090756;28;20236;-55
2022/07/15 10:17:09;;;;;;;6.30;3.72;;;31.40;86.70;;;;;;5090608;28;20297;-54
2022/07/15 10:20:08;;;;;;;3.28;3.08;;;31.40;89.40;;;;;;5083781;28;20201;-54
2022/07/15 10:22:49;;;;;;;3.92;3.58;;;31.90;83.90;;;;;;5073474;28;20254;-54
2022/07/15 10:25:31;;;;;;;3.80;3.50;;;32.00;85.50;;;;;;5072472;28;20204;-54
2022/07/15 10:28:05;;;;;;;4.47;4.07;;;32.20;89.50;;;;;;5074084;28;20320;-54
2022/07/15 10:30:33;;;;;;;3.45;3.03;;;31.90;87.70;;;;;;5074113;28;20205;-54
2022/07/15 10:33:13;;;;;;;4.28;4.00;;;31.50;89.90;;;;;;5073336;28;20383;-54
2022/07/15 10:35:43;;;;;;;3.38;3.15;;;31.30;88.00;;;;;;5083075;28;20208;-54
2022/07/15 10:38:27;;;;;;;3.25;3.05;;;30.90;85.70;;;;;;5074244;28;20210;-53
2022/07/15 10:41:09;;;;;;;3.70;3.47;;;31.00;88.00;;;;;;5092243;28;20914;-54
2022/07/15 10:43:48;;;;;;;3.65;3.30;;;31.50;83.00;;;;;;5072027;28;20205;-54
2022/07/15 10:46:24;;;;;;;3.05;2.92;;;31.60;81.20;;;;;;5078432;28;20269;-54
2022/07/15 10:48:52;;;;;;;6.05;3.63;;;31.70;87.20;;;;;;5092552;28;20224;-54
2022/07/15 10:51:45;;;;;;;5.10;3.42;;;31.90;81.30;;;;;;5092131;28;20196;-55
2022/07/15 10:54:40;;;;;;;3.55;3.42;;;31.90;87.40;;;;;;5093498;28;20200;-54
2022/07/15 10:57:09;;;;;;;3.38;3.10;;;31.20;84.50;;;;;;5091655;28;20230;-54
2022/07/15 10:59:47;;;;;;;3.83;3.38;;;30.80;86.60;;;;;;5092530;28;20201;-54
2022/07/15 11:02:20;;;;;;;3.65;3.20;;;30.50;87.00;;;;;;5085086;28;20200;-54
2022/07/15 11:04:48;;;;;;;4.22;3.50;;;30.40;89.20;;;;;;5093371;28;20273;-54
2022/07/15 11:07:36;;;;;;;6.05;3.58;;;29.90;88.70;;;;;;5088148;28;20225;-54
2022/07/15 11:10:18;;;;;;;3.78;3.58;;;30.00;86.40;;;;;;5091259;28;20219;-54
2022/07/15 11:13:11;;;;;;;3.75;3.55;;;30.30;88.90;;;;;;5092613;28;20197;-54
2022/07/15 11:15:39;;;;;;;3.28;3.17;;;30.30;86.20;;;;;;5078235;28;20211;-54
2022/07/15 11:18:06;;;;;;;3.38;3.25;;;30.40;86.40;;;;;;5093200;28;20255;-55
2022/07/15 11:20:39;;;;;;;3.40;3.20;;;30.10;89.50;;;;;;5091426;28;20254;-54
2022/07/15 11:23:07;;;;;;;4.25;3.60;;;30.00;84.00;;;;;;5090947;28;20228;-54
2022/07/15 11:25:37;;;;;;;2.90;2.80;;;29.60;90.50;;;;;;5091242;28;20246;-54
2022/07/15 11:28:07;;;;;;;3.67;3.47;;;29.40;90.20;;;;;;5093049;28;20271;-54
2022/07/15 11:30:39;;;;;;;4.05;3.75;;;29.30;91.30;;;;;;5091048;28;20204;-54
2022/07/15 11:33:13;;;;;;;2.95;2.85;;;28.70;86.80;;;;;;5092249;28;20288;-55
2022/07/15 11:35:45;;;;;;;3.85;3.05;;;28.80;91.30;;;;;;5092491;28;20257;-54
2022/07/15 11:38:12;;;;;;;3.75;3.45;;;28.70;91.00;;;;;;5091900;28;20203;-54
2022/07/15 11:46:15;;;;;;;4.55;2.92;;;28.60;91.20;;;;;;5092736;28;20216;-54
2022/07/15 11:48:45;;;;;;;3.25;3.05;;;28.50;91.40;;;;;;5089088;28;20224;-54
2022/07/15 11:51:13;;;;;;;4.20;3.55;;;28.50;93.00;;;;;;5084041;28;20765;-54
2022/07/15 11:53:42;;;;;;;4.78;3.80;;;28.40;91.00;;;;;;5092658;28;20682;-54
2022/07/15 11:56:10;;;;;;;3.08;2.88;;;28.30;90.90;;;;;;5087979;28;20282;-54
2022/07/15 11:58:39;;;;;;;4.00;3.78;;;28.20;91.30;;;;;;5086988;28;20200;-53
2022/07/15 12:01:08;;;;;;;3.88;3.58;;;28.20;90.20;;;;;;5091315;28;20196;-53
2022/07/15 12:03:40;;;;;;;4.25;3.95;;;28.20;92.30;;;;;;5092183;28;20231;-54
2022/07/15 12:06:14;;;;;;;3.17;3.03;;;28.20;92.00;;;;;;5092327;28;20231;-54
2022/07/15 12:18:49;;;;;;;4.43;4.10;;;27.90;90.20;;;;;;5075601;28;20628;-54
2022/07/15 12:21:16;;;;;;;4.38;3.85;;;27.90;92.80;;;;;;5091205;28;20219;-54
2022/07/15 12:24:01;;;;;;;3.95;3.65;;;27.70;92.00;;;;;;5090832;28;20200;-54
2022/07/15 12:26:28;;;;;;;5.13;3.90;;;27.80;91.70;;;;;;5089504;28;20232;-54
2022/07/15 12:28:57;;;;;;;4.25;3.85;;;27.80;92.30;;;;;;5088774;28;20212;-55
2022/07/15 12:31:28;;;;;;;3.35;3.15;;;27.60;91.60;;;;;;5090559;28;20200;-54
2022/07/15 12:33:56;;;;;;;7.07;3.22;;;27.70;91.10;;;;;;5090397;28;20648;-54
2022/07/15 12:36:25;;;;;;;3.58;3.38;;;28.00;90.40;;;;;;5085282;28;20270;-55
2022/07/15 12:39:10;;;;;;;4.30;4.00;;;28.20;92.10;;;;;;5087095;28;20231;-53
2022/07/15 12:41:39;;;;;;;4.45;3.50;;;28.10;92.10;;;;;;5090401;28;20244;-54
2022/07/15 12:44:07;;;;;;;3.70;3.40;;;28.00;92.40;;;;;;5091808;28;20315;-54
2022/07/15 12:46:56;;;;;;;5.10;3.53;;;27.80;92.90;;;;;;5089767;28;20263;-53
2022/07/15 12:50:00;;;;;;;3.63;3.30;;;27.60;93.50;;;;;;5089662;28;20231;-54
2022/07/15 12:52:32;;;;;;;11.43;4.05;;;27.50;92.50;;;;;;5022387;28;20233;-53
2022/07/15 12:55:00;;;;;;;3.40;3.20;;;27.50;93.50;;;;;;5028983;28;20202;-54
2022/07/15 12:57:30;;;;;;;3.75;3.45;;;27.40;92.80;;;;;;5046576;28;20315;-54
2022/07/15 13:00:01;;;;;;;4.57;3.50;;;27.40;91.70;;;;;;5090156;28;20291;-53
2022/07/15 13:02:29;;;;;;;4.45;4.18;;;27.50;93.20;;;;;;5090504;28;20696;-54
2022/07/15 13:04:57;;;;;;;3.88;3.70;;;27.50;93.10;;;;;;5091520;28;20277;-54
2022/07/15 13:07:24;;;;;;;3.78;3.45;;;27.50;93.10;;;;;;5090251;28;20300;-54
2022/07/15 13:09:52;;;;;;;3.75;3.55;;;27.50;91.30;;;;;;5088643;28;20281;-54
2022/07/15 13:12:19;;;;;;;3.50;3.20;;;27.60;94.10;;;;;;5090353;28;20511;-54
2022/07/15 13:14:46;;;;;;;4.63;4.18;;;27.50;92.30;;;;;;5091002;28;20236;-55
2022/07/15 13:17:13;;;;;;;4.43;3.80;;;27.30;92.30;;;;;;5089198;28;20220;-54